Argo Village, New York
Current Conditions -  °F | °C
As of 2:51 PM on Wednesday 28 Jan 2015 (Local Time) from KJFK Reporting Station
Few Clouds Few Clouds  
Wind Chill: 21°   Ceiling: Unl
Heat Index: 32°   Visibility: 10mi
Dew Point: 10°   Wind: 17mph
Humidity: 40%   Direction: 320°NW
Pressure: 30.08"   Gusts: NA
Location:  40.7013°N, 73.7074°W
Report Text: KJFK 281951Z 32015KT 10SM FEW250 00/M12 A3008 RMK AO2 SLP186 T00001122 $
Loading
Personal Weather Stations






























Interactive Weather Map New forecast layout! Learn more

10-Day Weather Forecast

Advertisements
Track Severe Weather on mobile